Time;durP1;ratioP1;P1;durP2;ratioP2;P2;SDS_P1;SDS_P2;PMS_P1;PMS_P2;Temp;Humidity;BMP_temperature;BMP_pressure;BME280_temperature;BME280_humidity;BME280_pressure;Samples;Min_cycle;Max_cycle;Signal;HPM_P1;HPM_P2
2022/05/12 00:04:39;;;;;;;2.38;1.35;;;20.00;61.50;;;;;;20729663;28;20120;-80
2022/05/12 00:14:40;;;;;;;1.95;1.30;;;20.00;61.70;;;;;;20698829;28;20492;-80
2022/05/12 00:24:40;;;;;;;2.97;1.25;;;20.00;61.80;;;;;;20681974;28;20046;-79
2022/05/12 00:34:41;;;;;;;1.80;1.05;;;20.00;61.90;;;;;;20696862;28;20034;-79
2022/05/12 00:44:42;;;;;;;2.15;1.35;;;20.00;62.00;;;;;;20680932;28;20034;-80
2022/05/12 00:54:49;;;;;;;3.15;1.00;;;20.00;62.00;;;;;;20680548;28;20029;-79
2022/05/12 01:04:49;;;;;;;3.22;1.17;;;19.90;62.00;;;;;;20711895;28;20069;-81
2022/05/12 01:14:50;;;;;;;3.70;1.10;;;19.90;62.00;;;;;;20724891;28;20493;-80
2022/05/12 01:24:50;;;;;;;1.73;0.82;;;19.90;62.10;;;;;;20710782;28;20305;-79
2022/05/12 01:34:52;;;;;;;1.98;1.10;;;19.90;62.10;;;;;;20710361;28;20541;-79
2022/05/12 01:44:53;;;;;;;2.35;1.10;;;19.90;62.10;;;;;;20725588;28;20044;-79
2022/05/12 01:54:54;;;;;;;2.37;1.10;;;19.90;62.20;;;;;;20646038;28;20058;-79
2022/05/12 02:04:55;;;;;;;1.45;0.93;;;19.80;62.10;;;;;;20636532;28;20084;-79
2022/05/12 02:14:55;;;;;;;2.38;1.05;;;19.90;62.20;;;;;;20708196;28;20033;-80
2022/05/12 02:24:56;;;;;;;3.20;1.30;;;19.80;62.20;;;;;;20722143;28;20069;-79
2022/05/12 02:34:56;;;;;;;2.13;1.40;;;19.80;62.30;;;;;;20705489;28;20026;-79
2022/05/12 02:44:57;;;;;;;2.28;1.20;;;19.80;62.40;;;;;;20688111;28;20038;-80
2022/05/12 02:54:58;;;;;;;3.47;1.17;;;19.80;62.50;;;;;;20721076;28;20364;-80
2022/05/12 03:04:58;;;;;;;2.22;0.80;;;19.70;62.40;;;;;;20734409;28;20439;-81
2022/05/12 03:15:00;;;;;;;2.33;1.15;;;19.70;62.40;;;;;;20687498;28;20506;-79
2022/05/12 03:25:01;;;;;;;1.85;0.82;;;19.60;62.40;;;;;;20718506;28;20041;-80
2022/05/12 03:35:03;;;;;;;4.90;1.08;;;19.60;62.20;;;;;;20716689;28;20029;-80
2022/05/12 03:45:03;;;;;;;0.70;0.50;;;19.60;62.10;;;;;;20716931;28;20053;-82
2022/05/12 03:55:08;;;;;;;0.93;0.50;;;19.50;62.50;;;;;;20699248;28;20026;-80
2022/05/12 04:05:09;;;;;;;1.00;0.50;;;19.50;61.60;;;;;;20683780;28;20131;-81
2022/05/12 04:15:10;;;;;;;2.42;0.50;;;19.50;61.40;;;;;;20673424;28;20116;-80
2022/05/12 04:25:11;;;;;;;4.53;0.77;;;19.50;61.30;;;;;;20712239;28;20124;-75
2022/05/12 04:35:12;;;;;;;1.58;0.85;;;19.40;61.00;;;;;;20725283;28;20141;-80
2022/05/12 04:45:13;;;;;;;1.55;0.98;;;19.40;60.80;;;;;;20695032;28;20037;-78
2022/05/12 04:55:15;;;;;;;0.90;0.30;;;19.40;60.70;;;;;;20704600;28;20034;-77
2022/05/12 05:05:15;;;;;;;0.82;0.40;;;19.40;60.60;;;;;;20723414;28;20042;-80
2022/05/12 05:15:16;;;;;;;0.40;0.30;;;19.40;60.60;;;;;;20758175;28;20337;-80
2022/05/12 05:25:17;;;;;;;0.55;0.30;;;19.40;60.60;;;;;;20738808;28;20375;-83
2022/05/12 05:35:18;;;;;;;0.47;0.30;;;19.30;60.50;;;;;;20736541;28;20088;-80
2022/05/12 05:45:19;;;;;;;2.30;0.50;;;19.30;60.50;;;;;;20719951;28;20072;-80
2022/05/12 05:55:20;;;;;;;1.45;0.32;;;19.30;60.40;;;;;;20735096;28;20466;-81
2022/05/12 06:05:21;;;;;;;0.43;0.30;;;19.30;60.30;;;;;;20718116;28;20458;-80
2022/05/12 06:15:22;;;;;;;0.63;0.60;;;19.30;60.20;;;;;;20717223;28;20336;-80
2022/05/12 06:25:23;;;;;;;2.28;0.50;;;19.30;60.10;;;;;;20731989;28;20045;-81
2022/05/12 06:35:24;;;;;;;1.05;0.50;;;19.30;60.10;;;;;;20745818;28;20024;-80
2022/05/12 06:45:25;;;;;;;1.05;0.32;;;19.30;60.00;;;;;;20711787;28;20034;-80
2022/05/12 06:55:27;;;;;;;0.80;0.40;;;19.30;59.90;;;;;;20648802;28;20101;-80
2022/05/12 07:05:27;;;;;;;0.88;0.40;;;19.20;59.80;;;;;;20745140;28;20672;-80
2022/05/12 07:15:28;;;;;;;1.35;0.43;;;19.20;60.40;;;;;;21119897;23;20133;-77
2022/05/12 07:35:48;;;;;;;2.35;0.47;;;19.20;59.50;;;;;;20729518;28;20037;-76
2022/05/12 07:45:48;;;;;;;3.40;0.47;;;19.20;59.40;;;;;;20712065;28;20374;-79
2022/05/12 07:55:49;;;;;;;0.88;0.45;;;19.20;59.30;;;;;;20727220;28;20041;-78
2022/05/12 08:05:51;;;;;;;3.38;0.85;;;19.20;59.30;;;;;;20777774;28;20042;-78
2022/05/12 08:15:51;;;;;;;2.35;0.65;;;19.20;59.20;;;;;;20792240;28;20037;-77
2022/05/12 08:25:52;;;;;;;2.73;0.60;;;19.20;59.30;;;;;;20721889;28;20080;-76
2022/05/12 08:35:53;;;;;;;0.97;0.30;;;19.20;59.30;;;;;;20722803;28;20300;-76
2022/05/12 08:45:54;;;;;;;2.33;0.75;;;19.30;59.40;;;;;;20752697;28;20034;-76
2022/05/12 08:55:56;;;;;;;0.90;0.30;;;19.20;59.30;;;;;;20737170;28;20041;-76
2022/05/12 09:06:03;;;;;;;1.83;0.40;;;19.30;59.20;;;;;;20736085;28;20042;-76
2022/05/12 09:16:25;;;;;;;2.45;0.52;;;19.30;59.30;;;;;;20685842;28;20456;-75
2022/05/12 09:26:46;;;;;;;1.52;0.60;;;19.30;59.30;;;;;;20685950;28;20034;-77
2022/05/12 09:36:47;;;;;;;0.65;0.40;;;19.30;59.20;;;;;;20723041;28;20030;-80
2022/05/12 09:47:07;;;;;;;1.37;0.40;;;19.30;59.20;;;;;;20738986;28;20044;-80
2022/05/12 09:57:20;;;;;;;2.28;0.47;;;19.30;59.10;;;;;;20705760;28;20796;-74
2022/05/12 10:17:58;;;;;;;1.67;0.50;;;19.30;58.90;;;;;;20704342;28;20030;-79
2022/05/12 10:28:46;;;;;;;3.35;0.63;;;19.30;58.90;;;;;;20690070;28;20107;-77
2022/05/12 10:39:02;;;;;;;3.33;0.93;;;19.30;58.80;;;;;;20688788;28;20386;-77
2022/05/12 10:49:21;;;;;;;0.80;0.40;;;19.30;58.70;;;;;;20733010;28;20040;-75
2022/05/12 10:59:37;;;;;;;1.40;0.40;;;19.30;58.70;;;;;;20701186;28;20041;-78
2022/05/12 11:09:40;;;;;;;;;;;19.30;58.70;;;;;;20764191;28;20500;-76
2022/05/12 11:19:44;;;;;;;2.50;0.40;;;19.20;58.60;;;;;;20795513;28;20308;-76
2022/05/12 11:30:37;;;;;;;5.35;0.77;;;19.20;58.50;;;;;;20765884;28;20064;-74
2022/05/12 11:40:44;;;;;;;2.92;0.43;;;19.30;58.20;;;;;;20728671;28;20057;-75
2022/05/12 11:50:53;;;;;;;1.45;0.52;;;19.30;58.40;;;;;;20742684;28;20072;-70
2022/05/12 12:00:55;;;;;;;1.02;0.40;;;19.30;58.50;;;;;;20739937;28;20038;-69
2022/05/12 12:11:14;;;;;;;0.73;0.28;;;19.30;58.50;;;;;;20735391;28;20042;-70
2022/05/12 12:21:41;;;;;;;3.50;0.30;;;19.30;58.40;;;;;;20739863;28;20044;-70
2022/05/12 12:31:49;;;;;;;2.40;0.60;;;19.30;58.20;;;;;;20703422;28;20068;-71
2022/05/12 12:41:50;;;;;;;1.00;0.50;;;19.30;58.00;;;;;;20722072;28;20053;-71
2022/05/12 12:51:57;;;;;;;0.65;0.40;;;19.30;57.80;;;;;;20713942;28;20029;-71
2022/05/12 13:01:59;;;;;;;2.78;0.60;;;19.30;57.30;;;;;;20716771;28;20037;-71
2022/05/12 13:12:07;;;;;;;4.18;0.43;;;19.30;56.60;;;;;;20788904;28;20088;-70
2022/05/12 13:22:09;;;;;;;1.63;0.40;;;19.40;55.80;;;;;;20718095;28;20498;-70
2022/05/12 13:32:30;;;;;;;2.15;0.57;;;19.40;55.20;;;;;;20770075;28;20512;-71
2022/05/12 13:42:46;;;;;;;3.70;0.70;;;19.40;54.20;;;;;;20746010;28;20041;-71
2022/05/12 13:52:51;;;;;;;0.88;0.55;;;19.40;53.30;;;;;;20699481;28;20052;-72
2022/05/12 14:02:53;;;;;;;0.97;0.30;;;19.40;52.20;;;;;;20737398;28;20048;-72
2022/05/12 14:23:12;;;;;;;1.77;0.30;;;19.50;52.60;;;;;;20700594;28;20089;-73
2022/05/12 14:33:13;;;;;;;2.25;0.60;;;19.50;52.90;;;;;;20713123;28;20077;-73
2022/05/12 14:43:14;;;;;;;2.97;0.77;;;19.60;53.00;;;;;;20707727;28;20120;-72
2022/05/12 14:53:16;;;;;;;2.63;0.73;;;19.80;53.00;;;;;;20743844;28;20470;-74
2022/05/12 15:03:16;;;;;;;1.45;0.70;;;19.80;53.00;;;;;;20726453;28;20041;-74
2022/05/12 15:13:17;;;;;;;1.05;0.60;;;19.80;53.60;;;;;;20709132;28;20045;-73
2022/05/12 15:23:18;;;;;;;0.88;0.47;;;19.90;53.70;;;;;;20741322;28;20045;-73
2022/05/12 15:33:19;;;;;;;2.55;0.68;;;19.90;54.10;;;;;;20729697;28;20080;-73
2022/05/12 15:43:19;;;;;;;1.42;0.52;;;19.90;54.20;;;;;;20674768;28;20145;-73
2022/05/12 15:53:20;;;;;;;1.75;0.47;;;19.90;54.20;;;;;;20754204;28;20421;-72
2022/05/12 16:03:22;;;;;;;2.05;0.73;;;19.90;54.20;;;;;;20719754;28;20132;-73
2022/05/12 16:13:24;;;;;;;0.40;0.40;;;19.90;54.20;;;;;;20717981;28;20039;-74
2022/05/12 16:23:25;;;;;;;1.77;0.30;;;20.00;54.30;;;;;;20721589;28;20042;-76
2022/05/12 16:33:26;;;;;;;1.42;0.40;;;20.10;54.50;;;;;;20726186;28;20449;-76
2022/05/12 16:43:26;;;;;;;3.17;0.50;;;20.10;54.60;;;;;;20730787;28;20038;-77
2022/05/12 16:53:28;;;;;;;1.65;0.40;;;20.20;54.60;;;;;;20739051;28;20137;-74
2022/05/12 17:03:29;;;;;;;2.28;0.57;;;20.10;54.60;;;;;;20767240;28;20043;-76
2022/05/12 17:13:30;;;;;;;1.13;0.43;;;20.10;54.60;;;;;;20754319;28;20050;-74
2022/05/12 17:23:30;;;;;;;2.53;1.30;;;20.10;54.60;;;;;;20740249;28;20042;-73
2022/05/12 17:33:31;;;;;;;3.60;0.68;;;20.10;54.30;;;;;;20733133;28;20560;-74
2022/05/12 17:43:32;;;;;;;1.25;0.47;;;20.10;54.40;;;;;;20717839;28;20586;-72
2022/05/12 17:53:32;;;;;;;1.83;0.55;;;20.10;54.50;;;;;;20632999;28;20093;-75
2022/05/12 18:03:33;;;;;;;3.75;1.00;;;20.00;54.40;;;;;;20697979;28;20088;-74
2022/05/12 18:13:35;;;;;;;1.15;0.50;;;19.90;54.30;;;;;;20714003;28;20044;-74
2022/05/12 18:23:36;;;;;;;0.57;0.50;;;19.90;54.40;;;;;;20745049;28;20038;-74
2022/05/12 18:33:36;;;;;;;1.77;0.65;;;19.80;54.30;;;;;;20745205;28;20052;-74
2022/05/12 18:43:37;;;;;;;1.60;0.65;;;19.80;54.20;;;;;;20730093;28;20045;-76
2022/05/12 18:53:39;;;;;;;3.38;0.47;;;19.80;54.30;;;;;;20728584;28;20116;-75
2022/05/12 19:03:39;;;;;;;1.15;0.50;;;19.70;54.30;;;;;;20743021;28;20038;-75
2022/05/12 19:13:40;;;;;;;2.10;0.50;;;19.70;54.40;;;;;;20745755;28;20040;-76
2022/05/12 19:23:41;;;;;;;1.15;0.40;;;19.70;54.70;;;;;;20739015;28;20064;-75
2022/05/12 19:33:42;;;;;;;1.30;0.57;;;19.60;55.00;;;;;;20725137;28;20117;-75
2022/05/12 19:43:42;;;;;;;0.85;0.47;;;19.60;55.40;;;;;;20722358;28;20033;-75
2022/05/12 19:53:43;;;;;;;1.20;0.37;;;19.60;55.70;;;;;;20788344;28;20032;-75
2022/05/12 20:03:43;;;;;;;0.45;0.40;;;19.60;56.00;;;;;;20710734;28;20304;-75
2022/05/12 20:13:44;;;;;;;2.60;0.60;;;19.60;56.20;;;;;;20739320;28;20133;-75
2022/05/12 20:23:45;;;;;;;0.98;0.40;;;19.60;56.30;;;;;;20754974;28;20045;-75
2022/05/12 20:33:46;;;;;;;1.15;0.40;;;19.50;56.50;;;;;;20751916;28;20121;-76
2022/05/12 20:43:47;;;;;;;1.73;0.50;;;19.50;56.60;;;;;;20737645;28;20133;-75
2022/05/12 20:53:48;;;;;;;1.17;0.45;;;19.50;56.80;;;;;;20703796;28;20296;-75
2022/05/12 21:03:48;;;;;;;0.75;0.30;;;19.50;56.80;;;;;;20719515;28;20133;-75
2022/05/12 21:13:49;;;;;;;1.30;0.63;;;19.50;56.90;;;;;;20738239;28;20037;-75
2022/05/12 21:23:49;;;;;;;1.30;0.60;;;19.40;56.80;;;;;;20735688;28;20053;-75
2022/05/12 21:33:50;;;;;;;0.57;0.43;;;19.40;56.90;;;;;;20750685;28;20034;-76
2022/05/12 21:43:51;;;;;;;1.43;0.40;;;19.40;56.90;;;;;;20766128;28;20120;-76
2022/05/12 21:53:52;;;;;;;0.80;0.50;;;19.40;57.00;;;;;;20732902;28;20137;-76
2022/05/12 22:03:56;;;;;;;0.50;0.50;;;19.40;57.00;;;;;;20731790;28;20135;-75
2022/05/12 22:13:58;;;;;;;0.40;0.40;;;19.40;57.10;;;;;;20733176;28;20068;-76
2022/05/12 22:23:58;;;;;;;1.02;0.60;;;19.30;57.20;;;;;;20749470;28;20041;-75
2022/05/12 22:33:59;;;;;;;1.05;0.52;;;19.30;57.20;;;;;;20732641;28;20458;-75
2022/05/12 22:44:00;;;;;;;1.17;0.55;;;19.30;57.10;;;;;;20763799;28;20044;-75
2022/05/12 22:54:00;;;;;;;1.50;0.65;;;19.30;57.20;;;;;;20730117;28;20033;-75
2022/05/12 23:04:01;;;;;;;1.20;0.52;;;19.30;57.20;;;;;;20746478;28;20053;-75
2022/05/12 23:14:02;;;;;;;0.75;0.43;;;19.20;57.20;;;;;;20744929;28;20048;-75
2022/05/12 23:24:02;;;;;;;1.35;0.70;;;19.30;57.30;;;;;;20728378;28;20414;-75
2022/05/12 23:34:03;;;;;;;0.80;0.40;;;19.20;57.30;;;;;;20727046;28;20069;-75
2022/05/12 23:44:06;;;;;;;1.02;0.40;;;19.20;57.20;;;;;;20726486;28;20496;-76
2022/05/12 23:54:07;;;;;;;0.85;0.63;;;19.20;57.30;;;;;;20758354;28;20042;-75
